sensor_id;sensor_type;location;lat;lon;timestamp;pressure;altitude;pressure_sealevel;temperature;humidity
5126;BME280;63008;53.112;8.896;2023-01-30T00:00:56;101218.84;;;4.58;89.38
5126;BME280;63008;53.112;8.896;2023-01-30T00:02:58;101212.31;;;4.59;88.97
5126;BME280;63008;53.112;8.896;2023-01-30T00:04:59;101196.56;;;4.56;89.36
5126;BME280;63008;53.112;8.896;2023-01-30T00:07:00;101197.91;;;4.59;89.56
5126;BME280;63008;53.112;8.896;2023-01-30T00:09:01;101186.50;;;4.57;90.15
5126;BME280;63008;53.112;8.896;2023-01-30T00:11:03;101180.59;;;4.50;90.79
5126;BME280;63008;53.112;8.896;2023-01-30T00:13:04;101187.06;;;4.54;91.05
5126;BME280;63008;53.112;8.896;2023-01-30T00:15:06;101185.44;;;4.53;91.08
5126;BME280;63008;53.112;8.896;2023-01-30T00:17:08;101185.41;;;4.58;91.19
5126;BME280;63008;53.112;8.896;2023-01-30T00:19:09;101176.19;;;4.54;91.60
5126;BME280;63008;53.112;8.896;2023-01-30T00:21:12;101167.53;;;4.52;91.45
5126;BME280;63008;53.112;8.896;2023-01-30T00:23:13;101173.47;;;4.54;92.12
5126;BME280;63008;53.112;8.896;2023-01-30T00:25:14;101153.38;;;4.55;92.34
5126;BME280;63008;53.112;8.896;2023-01-30T00:27:15;101153.88;;;4.62;92.17
5126;BME280;63008;53.112;8.896;2023-01-30T00:29:16;101146.00;;;4.60;92.94
5126;BME280;63008;53.112;8.896;2023-01-30T00:31:17;101119.06;;;4.64;93.05
5126;BME280;63008;53.112;8.896;2023-01-30T00:33:20;101122.88;;;4.63;93.30
5126;BME280;63008;53.112;8.896;2023-01-30T00:35:21;101123.16;;;4.61;93.53
5126;BME280;63008;53.112;8.896;2023-01-30T00:37:22;101123.59;;;4.73;92.99
5126;BME280;63008;53.112;8.896;2023-01-30T00:39:23;101107.63;;;4.67;93.55
5126;BME280;63008;53.112;8.896;2023-01-30T00:41:24;101109.19;;;4.73;93.47
5126;BME280;63008;53.112;8.896;2023-01-30T00:43:45;101088.00;;;4.70;93.64
5126;BME280;63008;53.112;8.896;2023-01-30T00:46:24;101085.25;;;4.75;93.59
5126;BME280;63008;53.112;8.896;2023-01-30T00:48:45;101071.38;;;4.76;93.50
5126;BME280;63008;53.112;8.896;2023-01-30T00:50:46;101080.34;;;4.77;93.80
5126;BME280;63008;53.112;8.896;2023-01-30T00:52:47;101065.41;;;4.74;94.20
5126;BME280;63008;53.112;8.896;2023-01-30T00:54:49;101058.03;;;4.80;94.21
5126;BME280;63008;53.112;8.896;2023-01-30T00:56:52;101038.34;;;4.88;93.62
5126;BME280;63008;53.112;8.896;2023-01-30T00:58:52;101031.28;;;4.87;93.89
5126;BME280;63008;53.112;8.896;2023-01-30T01:00:56;101034.31;;;4.85;94.03
5126;BME280;63008;53.112;8.896;2023-01-30T01:02:57;101025.78;;;4.92;93.98
5126;BME280;63008;53.112;8.896;2023-01-30T01:04:58;101018.19;;;4.94;94.15
5126;BME280;63008;53.112;8.896;2023-01-30T01:06:59;101012.94;;;4.97;93.63
5126;BME280;63008;53.112;8.896;2023-01-30T01:09:00;101005.03;;;5.01;93.75
5126;BME280;63008;53.112;8.896;2023-01-30T01:11:01;101015.31;;;5.04;94.06
5126;BME280;63008;53.112;8.896;2023-01-30T01:13:03;100995.19;;;5.05;93.93
5126;BME280;63008;53.112;8.896;2023-01-30T01:15:06;100998.94;;;5.09;93.70
5126;BME280;63008;53.112;8.896;2023-01-30T01:17:08;100992.41;;;5.10;93.74
5126;BME280;63008;53.112;8.896;2023-01-30T01:19:08;100975.78;;;5.11;93.98
5126;BME280;63008;53.112;8.896;2023-01-30T01:21:09;100987.44;;;5.17;93.68
5126;BME280;63008;53.112;8.896;2023-01-30T01:23:10;100975.38;;;5.23;93.46
5126;BME280;63008;53.112;8.896;2023-01-30T01:25:11;100970.66;;;5.28;93.44
5126;BME280;63008;53.112;8.896;2023-01-30T01:27:14;100988.84;;;5.32;93.10
5126;BME280;63008;53.112;8.896;2023-01-30T01:29:16;100967.81;;;5.38;92.77
5126;BME280;63008;53.112;8.896;2023-01-30T01:31:17;100963.03;;;5.48;92.26
5126;BME280;63008;53.112;8.896;2023-01-30T01:33:18;100964.13;;;5.47;92.32
5126;BME280;63008;53.112;8.896;2023-01-30T01:35:19;100962.22;;;5.48;92.25
5126;BME280;63008;53.112;8.896;2023-01-30T01:37:20;100937.44;;;5.49;92.16
5126;BME280;63008;53.112;8.896;2023-01-30T01:39:21;100930.38;;;5.48;92.51
5126;BME280;63008;53.112;8.896;2023-01-30T01:41:23;100922.41;;;5.52;92.46
5126;BME280;63008;53.112;8.896;2023-01-30T01:43:24;100941.09;;;5.58;92.14
5126;BME280;63008;53.112;8.896;2023-01-30T01:45:25;100938.97;;;5.55;92.49
5126;BME280;63008;53.112;8.896;2023-01-30T01:47:26;100926.69;;;5.58;92.45
5126;BME280;63008;53.112;8.896;2023-01-30T01:49:30;100930.16;;;5.63;92.27
5126;BME280;63008;53.112;8.896;2023-01-30T01:51:40;100919.25;;;5.63;92.34
5126;BME280;63008;53.112;8.896;2023-01-30T01:53:46;100926.31;;;5.64;92.22
5126;BME280;63008;53.112;8.896;2023-01-30T01:55:52;100924.38;;;5.65;92.60
5126;BME280;63008;53.112;8.896;2023-01-30T01:57:59;100912.63;;;5.69;92.20
5126;BME280;63008;53.112;8.896;2023-01-30T02:00:09;100920.78;;;5.69;92.68
5126;BME280;63008;53.112;8.896;2023-01-30T02:02:13;100919.97;;;5.69;93.22
5126;BME280;63008;53.112;8.896;2023-01-30T02:04:14;100905.75;;;5.72;93.80
5126;BME280;63008;53.112;8.896;2023-01-30T02:06:37;100891.34;;;5.71;94.43
5126;BME280;63008;53.112;8.896;2023-01-30T02:08:44;100918.84;;;5.70;94.66
5126;BME280;63008;53.112;8.896;2023-01-30T02:11:18;100913.41;;;5.70;95.15
5126;BME280;63008;53.112;8.896;2023-01-30T02:13:21;100904.44;;;5.69;95.42
5126;BME280;63008;53.112;8.896;2023-01-30T02:15:22;100894.34;;;5.70;95.61
5126;BME280;63008;53.112;8.896;2023-01-30T02:17:23;100881.56;;;5.70;95.87
5126;BME280;63008;53.112;8.896;2023-01-30T02:22:08;100882.66;;;5.69;96.45
5126;BME280;63008;53.112;8.896;2023-01-30T02:24:41;100878.25;;;5.73;96.58
5126;BME280;63008;53.112;8.896;2023-01-30T02:31:26;100871.63;;;5.79;96.67
5126;BME280;63008;53.112;8.896;2023-01-30T02:33:49;100863.75;;;5.78;96.55
5126;BME280;63008;53.112;8.896;2023-01-30T02:36:02;100864.03;;;5.76;96.90
5126;BME280;63008;53.112;8.896;2023-01-30T02:38:38;100859.13;;;5.78;97.09
5126;BME280;63008;53.112;8.896;2023-01-30T02:40:58;100844.97;;;5.76;97.33
5126;BME280;63008;53.112;8.896;2023-01-30T02:43:38;100841.13;;;5.77;97.45
5126;BME280;63008;53.112;8.896;2023-01-30T02:45:59;100847.66;;;5.81;97.31
5126;BME280;63008;53.112;8.896;2023-01-30T02:48:02;100831.00;;;5.83;97.20
5126;BME280;63008;53.112;8.896;2023-01-30T02:50:11;100834.84;;;5.82;97.33
5126;BME280;63008;53.112;8.896;2023-01-30T02:52:14;100834.72;;;5.87;97.28
5126;BME280;63008;53.112;8.896;2023-01-30T02:54:16;100817.38;;;5.83;97.36
5126;BME280;63008;53.112;8.896;2023-01-30T02:56:17;100816.06;;;5.80;97.61
5126;BME280;63008;53.112;8.896;2023-01-30T02:58:20;100821.22;;;5.82;97.90
5126;BME280;63008;53.112;8.896;2023-01-30T03:02:36;100810.53;;;5.85;97.43
5126;BME280;63008;53.112;8.896;2023-01-30T03:05:33;100810.03;;;5.83;97.74
5126;BME280;63008;53.112;8.896;2023-01-30T03:09:37;100831.50;;;5.85;97.96
5126;BME280;63008;53.112;8.896;2023-01-30T03:11:50;100807.50;;;5.87;97.79
5126;BME280;63008;53.112;8.896;2023-01-30T03:14:13;100813.44;;;5.89;97.70
5126;BME280;63008;53.112;8.896;2023-01-30T03:16:24;100802.25;;;5.90;97.57
5126;BME280;63008;53.112;8.896;2023-01-30T03:18:25;100812.38;;;5.90;97.91
5126;BME280;63008;53.112;8.896;2023-01-30T03:20:27;100810.22;;;5.87;98.00
5126;BME280;63008;53.112;8.896;2023-01-30T03:22:28;100799.84;;;5.89;97.83
5126;BME280;63008;53.112;8.896;2023-01-30T03:24:29;100796.81;;;5.90;98.38
5126;BME280;63008;53.112;8.896;2023-01-30T03:26:31;100792.69;;;5.93;98.31
5126;BME280;63008;53.112;8.896;2023-01-30T03:28:35;100790.25;;;5.91;98.38
5126;BME280;63008;53.112;8.896;2023-01-30T03:30:37;100798.94;;;5.93;98.35
5126;BME280;63008;53.112;8.896;2023-01-30T03:32:38;100789.16;;;5.92;98.66
5126;BME280;63008;53.112;8.896;2023-01-30T03:34:39;100796.72;;;5.95;98.59
5126;BME280;63008;53.112;8.896;2023-01-30T03:36:40;100782.59;;;5.93;98.78
5126;BME280;63008;53.112;8.896;2023-01-30T03:38:41;100771.19;;;5.91;99.14
5126;BME280;63008;53.112;8.896;2023-01-30T03:40:42;100771.69;;;5.93;99.24
5126;BME280;63008;53.112;8.896;2023-01-30T03:42:43;100773.25;;;5.99;99.11
5126;BME280;63008;53.112;8.896;2023-01-30T03:44:44;100773.25;;;5.99;98.82
5126;BME280;63008;53.112;8.896;2023-01-30T03:46:45;100766.69;;;6.00;98.82
5126;BME280;63008;53.112;8.896;2023-01-30T03:48:45;100774.25;;;6.03;99.02
5126;BME280;63008;53.112;8.896;2023-01-30T03:50:47;100777.47;;;6.05;98.93
5126;BME280;63008;53.112;8.896;2023-01-30T03:52:47;100765.75;;;6.05;98.99
5126;BME280;63008;53.112;8.896;2023-01-30T03:54:48;100763.63;;;6.02;99.11
5126;BME280;63008;53.112;8.896;2023-01-30T03:56:49;100765.75;;;6.05;99.38
5126;BME280;63008;53.112;8.896;2023-01-30T03:58:50;100765.16;;;6.08;99.42
5126;BME280;63008;53.112;8.896;2023-01-30T04:00:51;100759.72;;;6.08;99.26
5126;BME280;63008;53.112;8.896;2023-01-30T04:02:52;100759.72;;;6.08;99.44
5126;BME280;63008;53.112;8.896;2023-01-30T04:04:54;100761.34;;;6.09;99.51
5126;BME280;63008;53.112;8.896;2023-01-30T04:06:55;100763.94;;;6.14;99.60
5126;BME280;63008;53.112;8.896;2023-01-30T04:08:56;100754.03;;;6.18;99.62
5126;BME280;63008;53.112;8.896;2023-01-30T04:10:57;100759.88;;;6.25;99.74
5126;BME280;63008;53.112;8.896;2023-01-30T04:12:58;100762.81;;;6.28;99.71
5126;BME280;63008;53.112;8.896;2023-01-30T04:14:59;100776.44;;;6.28;99.78
5126;BME280;63008;53.112;8.896;2023-01-30T04:17:00;100777.25;;;6.29;99.99
5126;BME280;63008;53.112;8.896;2023-01-30T04:19:01;100789.66;;;6.35;100.00
5126;BME280;63008;53.112;8.896;2023-01-30T04:21:02;100783.50;;;6.43;100.00
5126;BME280;63008;53.112;8.896;2023-01-30T04:23:03;100799.22;;;6.46;99.87
5126;BME280;63008;53.112;8.896;2023-01-30T04:25:04;100791.06;;;6.46;99.57
5126;BME280;63008;53.112;8.896;2023-01-30T04:27:05;100782.25;;;6.49;98.18
5126;BME280;63008;53.112;8.896;2023-01-30T04:29:06;100779.22;;;6.50;97.74
5126;BME280;63008;53.112;8.896;2023-01-30T04:31:07;100780.31;;;6.49;97.80
5126;BME280;63008;53.112;8.896;2023-01-30T04:33:08;100782.47;;;6.52;97.51
5126;BME280;63008;53.112;8.896;2023-01-30T04:35:09;100780.53;;;6.53;97.37
5126;BME280;63008;53.112;8.896;2023-01-30T04:37:11;100786.28;;;6.51;97.35
5126;BME280;63008;53.112;8.896;2023-01-30T04:39:12;100803.44;;;6.52;96.82
5126;BME280;63008;53.112;8.896;2023-01-30T04:41:13;100787.72;;;6.49;96.65
5126;BME280;63008;53.112;8.896;2023-01-30T04:43:14;100796.78;;;6.44;96.88
5126;BME280;63008;53.112;8.896;2023-01-30T04:45:15;100794.41;;;6.43;96.89
5126;BME280;63008;53.112;8.896;2023-01-30T04:47:16;100806.38;;;6.42;96.38
5126;BME280;63008;53.112;8.896;2023-01-30T04:49:17;100789.34;;;6.36;96.06
5126;BME280;63008;53.112;8.896;2023-01-30T04:51:18;100798.03;;;6.38;95.55
5126;BME280;63008;53.112;8.896;2023-01-30T04:53:19;100800.84;;;6.33;95.89
5126;BME280;63008;53.112;8.896;2023-01-30T04:55:20;100808.72;;;6.35;95.54
5126;BME280;63008;53.112;8.896;2023-01-30T04:57:21;100805.00;;;6.31;95.39
5126;BME280;63008;53.112;8.896;2023-01-30T04:59:22;100790.38;;;6.27;94.87
5126;BME280;63008;53.112;8.896;2023-01-30T05:01:31;100771.88;;;6.24;94.69
5126;BME280;63008;53.112;8.896;2023-01-30T05:03:33;100764.72;;;6.14;95.08
5126;BME280;63008;53.112;8.896;2023-01-30T05:05:34;100763.63;;;6.15;94.41
5126;BME280;63008;53.112;8.896;2023-01-30T05:07:35;100757.66;;;6.13;93.95
5126;BME280;63008;53.112;8.896;2023-01-30T05:09:36;100758.28;;;6.10;94.02
5126;BME280;63008;53.112;8.896;2023-01-30T05:11:37;100762.72;;;6.06;93.67
5126;BME280;63008;53.112;8.896;2023-01-30T05:13:38;100761.13;;;6.05;94.17
5126;BME280;63008;53.112;8.896;2023-01-30T05:15:39;100762.72;;;6.06;94.30
5126;BME280;63008;53.112;8.896;2023-01-30T05:17:40;100762.22;;;6.04;94.59
5126;BME280;63008;53.112;8.896;2023-01-30T05:19:41;100755.69;;;6.05;94.77
5126;BME280;63008;53.112;8.896;2023-01-30T05:21:42;100771.13;;;6.10;94.39
5126;BME280;63008;53.112;8.896;2023-01-30T05:23:43;100764.44;;;6.16;94.18
5126;BME280;63008;53.112;8.896;2023-01-30T05:25:44;100770.47;;;6.26;93.31
5126;BME280;63008;53.112;8.896;2023-01-30T05:27:45;100772.59;;;6.29;93.24
5126;BME280;63008;53.112;8.896;2023-01-30T05:29:46;100785.59;;;6.32;93.37
5126;BME280;63008;53.112;8.896;2023-01-30T05:31:47;100771.19;;;6.32;93.29
5126;BME280;63008;53.112;8.896;2023-01-30T05:33:49;100777.63;;;6.36;92.73
5126;BME280;63008;53.112;8.896;2023-01-30T05:35:51;100770.28;;;6.36;92.60
5126;BME280;63008;53.112;8.896;2023-01-30T05:37:52;100767.72;;;6.40;92.07
5126;BME280;63008;53.112;8.896;2023-01-30T05:39:53;100765.50;;;6.42;92.10
5126;BME280;63008;53.112;8.896;2023-01-30T05:41:54;100769.25;;;6.46;91.65
5126;BME280;63008;53.112;8.896;2023-01-30T05:43:55;100770.84;;;6.47;91.73
5126;BME280;63008;53.112;8.896;2023-01-30T05:45:58;100772.66;;;6.51;91.49
5126;BME280;63008;53.112;8.896;2023-01-30T05:47:59;100758.22;;;6.51;91.33
5126;BME280;63008;53.112;8.896;2023-01-30T05:50:00;100773.97;;;6.54;91.20
5126;BME280;63008;53.112;8.896;2023-01-30T05:52:01;100771.03;;;6.50;90.42
5126;BME280;63008;53.112;8.896;2023-01-30T05:54:02;100774.78;;;6.54;90.39
5126;BME280;63008;53.112;8.896;2023-01-30T05:56:04;100777.00;;;6.52;90.24
5126;BME280;63008;53.112;8.896;2023-01-30T05:58:05;100786.47;;;6.55;89.42
5126;BME280;63008;53.112;8.896;2023-01-30T06:00:06;100777.50;;;6.54;89.47
5126;BME280;63008;53.112;8.896;2023-01-30T06:02:08;100777.00;;;6.52;89.32
5126;BME280;63008;53.112;8.896;2023-01-30T06:04:09;100779.13;;;6.55;88.23
5126;BME280;63008;53.112;8.896;2023-01-30T06:06:11;100782.97;;;6.54;88.09
5126;BME280;63008;53.112;8.896;2023-01-30T06:08:12;100783.16;;;6.44;89.30
5126;BME280;63008;53.112;8.896;2023-01-30T06:10:13;100779.13;;;6.42;87.97
5126;BME280;63008;53.112;8.896;2023-01-30T06:12:14;100790.16;;;6.37;88.59
5126;BME280;63008;53.112;8.896;2023-01-30T06:14:15;100775.81;;;6.31;88.20
5126;BME280;63008;53.112;8.896;2023-01-30T06:16:17;100775.94;;;6.26;88.31
5126;BME280;63008;53.112;8.896;2023-01-30T06:18:18;100786.81;;;6.26;88.00
5126;BME280;63008;53.112;8.896;2023-01-30T06:20:19;100784.09;;;6.26;87.66
5126;BME280;63008;53.112;8.896;2023-01-30T06:22:20;100776.66;;;6.18;89.11
5126;BME280;63008;53.112;8.896;2023-01-30T06:24:21;100770.88;;;6.20;88.63
5126;BME280;63008;53.112;8.896;2023-01-30T06:26:22;100779.97;;;6.15;88.65
5126;BME280;63008;53.112;8.896;2023-01-30T06:28:24;100774.03;;;6.27;88.09
5126;BME280;63008;53.112;8.896;2023-01-30T06:30:25;100774.19;;;6.30;87.32
5126;BME280;63008;53.112;8.896;2023-01-30T06:32:26;100767.56;;;6.36;86.83
5126;BME280;63008;53.112;8.896;2023-01-30T06:34:27;100762.00;;;6.28;87.18
5126;BME280;63008;53.112;8.896;2023-01-30T06:36:29;100770.97;;;6.28;87.32
5126;BME280;63008;53.112;8.896;2023-01-30T06:38:30;100775.53;;;6.33;86.33
5126;BME280;63008;53.112;8.896;2023-01-30T06:40:31;100786.41;;;6.33;86.46
5126;BME280;63008;53.112;8.896;2023-01-30T06:42:32;100787.81;;;6.30;86.96
5126;BME280;63008;53.112;8.896;2023-01-30T06:44:33;100789.34;;;6.23;86.91
5126;BME280;63008;53.112;8.896;2023-01-30T06:46:34;100788.34;;;6.19;87.37
5126;BME280;63008;53.112;8.896;2023-01-30T06:48:35;100785.31;;;6.20;86.49
5126;BME280;63008;53.112;8.896;2023-01-30T06:50:35;100791.88;;;6.19;85.90
5126;BME280;63008;53.112;8.896;2023-01-30T06:52:44;100794.19;;;6.12;86.63
5126;BME280;63008;53.112;8.896;2023-01-30T06:54:45;100803.69;;;6.15;86.05
5126;BME280;63008;53.112;8.896;2023-01-30T06:56:46;100804.38;;;6.07;86.95
5126;BME280;63008;53.112;8.896;2023-01-30T06:58:47;100796.03;;;6.03;86.62
5126;BME280;63008;53.112;8.896;2023-01-30T07:00:48;100805.00;;;6.04;86.50
5126;BME280;63008;53.112;8.896;2023-01-30T07:02:49;100809.16;;;6.01;86.89
5126;BME280;63008;53.112;8.896;2023-01-30T07:04:50;100806.50;;;5.96;86.37
5126;BME280;63008;53.112;8.896;2023-01-30T07:06:51;100794.72;;;6.01;85.88
5126;BME280;63008;53.112;8.896;2023-01-30T07:08:52;100793.91;;;6.00;85.39
5126;BME280;63008;53.112;8.896;2023-01-30T07:10:53;100813.88;;;5.96;85.94
5126;BME280;63008;53.112;8.896;2023-01-30T07:12:54;100812.75;;;5.97;85.53
5126;BME280;63008;53.112;8.896;2023-01-30T07:14:55;100810.34;;;5.95;85.52
5126;BME280;63008;53.112;8.896;2023-01-30T07:16:56;100800.03;;;5.92;85.09
5126;BME280;63008;53.112;8.896;2023-01-30T07:18:57;100804.00;;;6.00;83.92
5126;BME280;63008;53.112;8.896;2023-01-30T07:20:58;100805.81;;;6.04;83.49
5126;BME280;63008;53.112;8.896;2023-01-30T07:22:59;100814.78;;;6.05;83.34
5126;BME280;63008;53.112;8.896;2023-01-30T07:25:00;100808.09;;;5.97;84.42
5126;BME280;63008;53.112;8.896;2023-01-30T07:27:01;100817.38;;;5.96;84.17
5126;BME280;63008;53.112;8.896;2023-01-30T07:29:02;100814.16;;;5.94;84.43
5126;BME280;63008;53.112;8.896;2023-01-30T07:31:03;100819.94;;;5.93;84.15
5126;BME280;63008;53.112;8.896;2023-01-30T07:33:07;100818.00;;;5.93;84.05
5126;BME280;63008;53.112;8.896;2023-01-30T07:35:08;100819.31;;;5.96;83.73
5126;BME280;63008;53.112;8.896;2023-01-30T07:37:09;100819.09;;;6.06;82.68
5126;BME280;63008;53.112;8.896;2023-01-30T07:39:10;100801.56;;;6.12;82.94
5126;BME280;63008;53.112;8.896;2023-01-30T07:41:11;100815.28;;;6.07;83.16
5126;BME280;63008;53.112;8.896;2023-01-30T07:43:12;100817.09;;;6.11;82.71
5126;BME280;63008;53.112;8.896;2023-01-30T07:45:14;100819.03;;;6.11;82.63
5126;BME280;63008;53.112;8.896;2023-01-30T07:47:15;100821.53;;;6.21;81.73
5126;BME280;63008;53.112;8.896;2023-01-30T07:49:16;100832.84;;;6.28;81.92
5126;BME280;63008;53.112;8.896;2023-01-30T07:51:17;100835.38;;;6.24;81.85
5126;BME280;63008;53.112;8.896;2023-01-30T07:53:17;100826.50;;;6.19;82.54
5126;BME280;63008;53.112;8.896;2023-01-30T07:55:18;100832.53;;;6.16;83.23
5126;BME280;63008;53.112;8.896;2023-01-30T07:57:19;100824.09;;;6.17;82.39
5126;BME280;63008;53.112;8.896;2023-01-30T07:59:20;100832.25;;;6.17;82.70
5126;BME280;63008;53.112;8.896;2023-01-30T08:01:22;100825.09;;;6.21;81.64
5126;BME280;63008;53.112;8.896;2023-01-30T08:03:23;100840.59;;;6.21;82.31
5126;BME280;63008;53.112;8.896;2023-01-30T08:05:24;100836.59;;;6.18;81.92
5126;BME280;63008;53.112;8.896;2023-01-30T08:07:25;100835.38;;;6.24;81.75
5126;BME280;63008;53.112;8.896;2023-01-30T08:09:26;100834.16;;;6.30;80.98
5126;BME280;63008;53.112;8.896;2023-01-30T08:11:27;100829.19;;;6.32;82.93
5126;BME280;63008;53.112;8.896;2023-01-30T08:13:28;100823.34;;;6.25;82.21
5126;BME280;63008;53.112;8.896;2023-01-30T08:15:29;100827.00;;;6.34;81.47
5126;BME280;63008;53.112;8.896;2023-01-30T08:17:31;100838.97;;;6.33;81.71
5126;BME280;63008;53.112;8.896;2023-01-30T08:19:32;100842.53;;;6.20;83.24
5126;BME280;63008;53.112;8.896;2023-01-30T08:21:33;100829.81;;;6.29;81.94
5126;BME280;63008;53.112;8.896;2023-01-30T08:23:34;100827.50;;;6.23;83.23
5126;BME280;63008;53.112;8.896;2023-01-30T08:25:35;100833.34;;;6.30;82.66
5126;BME280;63008;53.112;8.896;2023-01-30T08:27:36;100837.69;;;6.31;81.79
5126;BME280;63008;53.112;8.896;2023-01-30T08:29:37;100819.72;;;6.30;82.81
5126;BME280;63008;53.112;8.896;2023-01-30T08:31:38;100826.69;;;6.36;81.96
5126;BME280;63008;53.112;8.896;2023-01-30T08:33:39;100822.63;;;6.33;82.23
5126;BME280;63008;53.112;8.896;2023-01-30T08:35:40;100826.19;;;6.34;82.59
5126;BME280;63008;53.112;8.896;2023-01-30T08:37:42;100830.31;;;6.45;81.33
5126;BME280;63008;53.112;8.896;2023-01-30T08:39:43;100843.63;;;6.46;82.00
5126;BME280;63008;53.112;8.896;2023-01-30T08:41:44;100822.53;;;6.52;80.62
5126;BME280;63008;53.112;8.896;2023-01-30T08:43:45;100835.44;;;6.46;80.95
5126;BME280;63008;53.112;8.896;2023-01-30T08:45:46;100840.00;;;6.51;80.45
5126;BME280;63008;53.112;8.896;2023-01-30T08:47:47;100839.09;;;6.55;80.31
5126;BME280;63008;53.112;8.896;2023-01-30T08:49:48;100848.38;;;6.54;81.18
5126;BME280;63008;53.112;8.896;2023-01-30T08:51:51;100841.59;;;6.52;81.21
5126;BME280;63008;53.112;8.896;2023-01-30T08:53:51;100838.28;;;6.41;81.85
5126;BME280;63008;53.112;8.896;2023-01-30T08:55:53;100837.38;;;6.32;83.15
5126;BME280;63008;53.112;8.896;2023-01-30T08:57:55;100815.69;;;6.27;83.64
5126;BME280;63008;53.112;8.896;2023-01-30T08:59:56;100828.00;;;6.25;84.36
5126;BME280;63008;53.112;8.896;2023-01-30T09:01:57;100825.88;;;6.35;83.49
5126;BME280;63008;53.112;8.896;2023-01-30T09:03:58;100820.13;;;6.37;82.87
5126;BME280;63008;53.112;8.896;2023-01-30T09:05:59;100840.09;;;6.32;84.65
5126;BME280;63008;53.112;8.896;2023-01-30T09:08:00;100829.72;;;6.34;82.71
5126;BME280;63008;53.112;8.896;2023-01-30T09:10:01;100832.84;;;6.28;83.92
5126;BME280;63008;53.112;8.896;2023-01-30T09:12:02;100826.09;;;6.25;84.44
5126;BME280;63008;53.112;8.896;2023-01-30T09:14:03;100825.38;;;6.20;85.85
5126;BME280;63008;53.112;8.896;2023-01-30T09:16:05;100821.53;;;6.21;85.77
5126;BME280;63008;53.112;8.896;2023-01-30T09:18:06;100821.53;;;6.21;85.05
5126;BME280;63008;53.112;8.896;2023-01-30T09:20:08;100825.25;;;6.25;84.07
5126;BME280;63008;53.112;8.896;2023-01-30T09:22:10;100809.94;;;6.29;84.34
5126;BME280;63008;53.112;8.896;2023-01-30T09:24:11;100821.31;;;6.44;83.07
5126;BME280;63008;53.112;8.896;2023-01-30T09:26:12;100821.72;;;6.51;82.95
5126;BME280;63008;53.112;8.896;2023-01-30T09:28:12;100816.75;;;6.67;80.95
5126;BME280;63008;53.112;8.896;2023-01-30T09:30:14;100818.25;;;6.73;80.49
5126;BME280;63008;53.112;8.896;2023-01-30T09:32:15;100829.56;;;6.66;81.08
5126;BME280;63008;53.112;8.896;2023-01-30T09:34:16;100819.28;;;6.63;82.23
5126;BME280;63008;53.112;8.896;2023-01-30T09:36:17;100827.16;;;6.51;83.46
5126;BME280;63008;53.112;8.896;2023-01-30T09:38:18;100832.22;;;6.44;84.98
5126;BME280;63008;53.112;8.896;2023-01-30T09:40:23;100836.97;;;6.52;83.71
5126;BME280;63008;53.112;8.896;2023-01-30T09:42:58;100835.63;;;6.63;84.22
5126;BME280;63008;53.112;8.896;2023-01-30T09:47:22;100840.63;;;6.83;81.98
5126;BME280;63008;53.112;8.896;2023-01-30T09:51:50;100829.66;;;6.75;81.79
5126;BME280;63008;53.112;8.896;2023-01-30T09:54:19;100830.69;;;6.79;80.75
5126;BME280;63008;53.112;8.896;2023-01-30T09:56:21;100832.56;;;6.78;80.43
5126;BME280;63008;53.112;8.896;2023-01-30T09:58:23;100815.72;;;6.76;78.86
5126;BME280;63008;53.112;8.896;2023-01-30T10:00:35;100826.13;;;6.74;78.61
5126;BME280;63008;53.112;8.896;2023-01-30T10:02:49;100841.97;;;6.86;78.53
5126;BME280;63008;53.112;8.896;2023-01-30T10:04:51;100834.22;;;7.01;79.13
5126;BME280;63008;53.112;8.896;2023-01-30T10:09:34;100832.19;;;7.07;77.22
5126;BME280;63008;53.112;8.896;2023-01-30T10:12:09;100829.38;;;6.98;77.66
5126;BME280;63008;53.112;8.896;2023-01-30T10:19:05;100823.94;;;6.98;79.15
5126;BME280;63008;53.112;8.896;2023-01-30T10:21:23;100816.00;;;7.10;78.23
5126;BME280;63008;53.112;8.896;2023-01-30T10:23:54;100820.06;;;7.34;78.11
5126;BME280;63008;53.112;8.896;2023-01-30T10:28:31;100819.56;;;7.32;77.58
5126;BME280;63008;53.112;8.896;2023-01-30T10:30:33;100810.81;;;7.22;78.73
5126;BME280;63008;53.112;8.896;2023-01-30T10:32:43;100816.56;;;6.99;79.84
5126;BME280;63008;53.112;8.896;2023-01-30T10:34:50;100808.41;;;6.85;81.04
5126;BME280;63008;53.112;8.896;2023-01-30T10:37:12;100804.56;;;6.86;80.26
5126;BME280;63008;53.112;8.896;2023-01-30T10:39:33;100798.13;;;6.82;80.76
5126;BME280;63008;53.112;8.896;2023-01-30T10:41:48;100808.84;;;6.79;81.55
5126;BME280;63008;53.112;8.896;2023-01-30T10:44:02;100789.06;;;6.73;82.98
5126;BME280;63008;53.112;8.896;2023-01-30T10:46:23;100789.97;;;6.69;83.98
5126;BME280;63008;53.112;8.896;2023-01-30T10:48:50;100795.34;;;6.60;83.51
5126;BME280;63008;53.112;8.896;2023-01-30T10:51:02;100783.97;;;6.58;82.86
5126;BME280;63008;53.112;8.896;2023-01-30T10:55:50;100774.31;;;6.74;82.58
5126;BME280;63008;53.112;8.896;2023-01-30T10:58:16;100761.72;;;6.65;83.09
5126;BME280;63008;53.112;8.896;2023-01-30T11:02:46;100774.28;;;6.52;83.36
5126;BME280;63008;53.112;8.896;2023-01-30T11:04:58;100782.38;;;6.44;84.08
5126;BME280;63008;53.112;8.896;2023-01-30T11:07:00;100777.84;;;6.39;85.32
5126;BME280;63008;53.112;8.896;2023-01-30T11:09:02;100775.72;;;6.36;86.22
5126;BME280;63008;53.112;8.896;2023-01-30T11:11:28;100787.53;;;6.32;86.08
5126;BME280;63008;53.112;8.896;2023-01-30T11:13:31;100787.91;;;6.39;86.18
5126;BME280;63008;53.112;8.896;2023-01-30T11:15:39;100861.50;;;6.39;84.66
5126;BME280;63008;53.112;8.896;2023-01-30T11:17:41;100821.34;;;6.31;84.27
5126;BME280;63008;53.112;8.896;2023-01-30T11:19:43;100823.75;;;6.19;85.09
5126;BME280;63008;53.112;8.896;2023-01-30T11:21:58;100801.84;;;6.24;86.15
5126;BME280;63008;53.112;8.896;2023-01-30T11:24:09;100815.06;;;6.30;86.08
5126;BME280;63008;53.112;8.896;2023-01-30T11:26:34;100814.38;;;6.38;85.81
5126;BME280;63008;53.112;8.896;2023-01-30T11:28:41;100821.00;;;6.59;84.45
5126;BME280;63008;53.112;8.896;2023-01-30T11:30:43;100816.38;;;6.95;84.53
5126;BME280;63008;53.112;8.896;2023-01-30T11:32:47;100812.16;;;7.11;83.45
5126;BME280;63008;53.112;8.896;2023-01-30T11:35:06;100809.88;;;7.26;82.85
5126;BME280;63008;53.112;8.896;2023-01-30T11:37:29;100804.41;;;7.26;81.96